createdAt,value
2019-01-09T00:01:07.600Z,100.00
2019-01-09T00:03:37.381Z,100.00
2019-01-09T00:06:07.616Z,100.00
2019-01-09T00:08:37.484Z,100.00
2019-01-09T00:11:07.255Z,100.00
2019-01-09T00:13:37.038Z,100.00
2019-01-09T00:16:06.815Z,100.00
2019-01-09T00:18:36.561Z,100.00
2019-01-09T00:21:06.450Z,100.00
2019-01-09T00:23:36.231Z,100.00
2019-01-09T00:26:06.047Z,100.00
2019-01-09T00:28:35.881Z,100.00
2019-01-09T00:31:05.665Z,100.00
2019-01-09T00:33:35.516Z,100.00
2019-01-09T00:36:05.277Z,100.00
2019-01-09T00:38:35.160Z,100.00
2019-01-09T00:41:04.968Z,100.00
2019-01-09T00:43:34.762Z,100.00
2019-01-09T00:46:04.536Z,100.00
2019-01-09T00:48:34.362Z,100.00
2019-01-09T00:51:04.255Z,100.00
2019-01-09T00:53:34.236Z,100.00
2019-01-09T00:56:04.077Z,100.00
2019-01-09T00:58:33.845Z,100.00
2019-01-09T01:01:03.644Z,100.00
2019-01-09T01:04:12.854Z,100.00
2019-01-09T01:07:06.588Z,100.00
2019-01-09T01:10:06.346Z,100.00
2019-01-09T01:13:01.577Z,100.00
2019-01-09T01:16:01.047Z,100.00
2019-01-09T01:18:47.165Z,100.00
2019-01-09T01:21:24.362Z,100.00
2019-01-09T01:24:15.373Z,100.00
2019-01-09T01:26:55.441Z,100.00
2019-01-09T01:30:03.124Z,100.00
2019-01-09T01:32:48.704Z,100.00
2019-01-09T01:35:35.014Z,100.00
2019-01-09T01:38:26.216Z,100.00
2019-01-09T01:41:09.827Z,100.00
2019-01-09T01:43:58.309Z,100.00
2019-01-09T01:46:50.625Z,100.00
2019-01-09T01:50:08.983Z,100.00
2019-01-09T01:53:04.150Z,100.00
2019-01-09T01:56:20.945Z,100.00
2019-01-09T01:59:01.189Z,100.00
2019-01-09T02:01:50.567Z,100.00
2019-01-09T02:04:45.993Z,100.00
2019-01-09T02:07:52.004Z,100.00
2019-01-09T02:10:59.574Z,100.00
2019-01-09T02:13:50.996Z,100.00
2019-01-09T02:17:00.051Z,100.00
2019-01-09T02:19:39.818Z,100.00
2019-01-09T02:22:45.978Z,100.00
2019-01-09T02:25:46.032Z,100.00
2019-01-09T02:28:38.248Z,100.00
2019-01-09T02:31:19.000Z,100.00
2019-01-09T02:33:48.829Z,100.00
2019-01-09T02:36:18.601Z,100.00
2019-01-09T02:38:48.393Z,100.00
2019-01-09T02:41:18.196Z,100.00
2019-01-09T02:43:47.974Z,100.00
2019-01-09T02:46:17.878Z,100.00
2019-01-09T02:48:48.752Z,100.00
2019-01-09T02:51:18.770Z,100.00
2019-01-09T02:53:48.613Z,100.00
2019-01-09T02:56:18.500Z,100.00
2019-01-09T02:58:48.277Z,100.00
2019-01-09T03:01:18.079Z,100.00
2019-01-09T03:03:47.975Z,100.00
2019-01-09T03:06:23.180Z,100.00
2019-01-09T03:08:50.060Z,100.00
2019-01-09T03:11:19.854Z,100.00
2019-01-09T03:13:49.651Z,100.00
2019-01-09T03:16:19.415Z,100.00
2019-01-09T03:18:49.196Z,100.00
2019-01-09T03:21:19.099Z,100.00
2019-01-09T03:23:48.889Z,100.00
2019-01-09T03:26:18.688Z,100.00
2019-01-09T03:28:48.515Z,100.00
2019-01-09T03:31:18.300Z,100.00
2019-01-09T03:33:48.379Z,100.00
2019-01-09T03:36:18.262Z,100.00
2019-01-09T03:38:48.114Z,100.00
2019-01-09T03:41:18.002Z,100.00
2019-01-09T03:43:47.786Z,100.00
2019-01-09T03:46:17.556Z,100.00
2019-01-09T03:48:47.680Z,100.00
2019-01-09T03:51:17.443Z,100.00
2019-01-09T03:53:47.261Z,100.00
2019-01-09T03:56:17.241Z,100.00
2019-01-09T03:58:47.043Z,100.00
2019-01-09T04:01:16.836Z,100.00
2019-01-09T04:03:46.605Z,100.00
2019-01-09T04:06:17.003Z,100.00
2019-01-09T04:08:47.229Z,100.00
2019-01-09T04:11:17.002Z,100.00
2019-01-09T04:13:46.818Z,100.00
2019-01-09T04:16:16.609Z,100.00
2019-01-09T04:18:46.415Z,100.00
2019-01-09T04:21:16.201Z,100.00
2019-01-09T04:23:46.018Z,100.00
2019-01-09T04:26:15.839Z,100.00
2019-01-09T04:28:45.586Z,100.00
2019-01-09T04:31:15.358Z,100.00
2019-01-09T04:33:45.139Z,100.00
2019-01-09T04:36:15.007Z,100.00
2019-01-09T04:38:44.805Z,100.00
2019-01-09T04:41:14.588Z,100.00
2019-01-09T04:43:44.438Z,100.00
2019-01-09T04:46:14.211Z,100.00
2019-01-09T04:48:43.995Z,100.00
2019-01-09T04:51:13.805Z,100.00
2019-01-09T04:53:43.590Z,100.00
2019-01-09T04:56:13.391Z,100.00
2019-01-09T04:58:43.178Z,100.00
2019-01-09T05:01:13.033Z,100.00
2019-01-09T05:03:42.837Z,100.00
2019-01-09T05:06:13.126Z,100.00
2019-01-09T05:08:42.916Z,100.00
2019-01-09T05:11:12.733Z,100.00
2019-01-09T05:13:42.841Z,100.00
2019-01-09T05:16:12.610Z,100.00
2019-01-09T05:18:42.391Z,100.00
2019-01-09T05:21:12.178Z,100.00
2019-01-09T05:23:42.004Z,100.00
2019-01-09T05:26:11.794Z,100.00
2019-01-09T05:28:41.607Z,100.00
2019-01-09T05:31:11.408Z,100.00
2019-01-09T05:33:41.187Z,100.00
2019-01-09T05:36:11.054Z,100.00
2019-01-09T05:38:40.898Z,100.00
2019-01-09T05:41:10.749Z,100.00
2019-01-09T05:43:40.533Z,100.00
2019-01-09T05:46:10.332Z,100.00
2019-01-09T05:48:40.113Z,100.00
2019-01-09T05:51:09.936Z,100.00
2019-01-09T05:53:39.727Z,100.00
2019-01-09T05:56:09.515Z,100.00
2019-01-09T05:58:39.277Z,100.00
2019-01-09T06:01:09.087Z,100.00
2019-01-09T06:03:38.903Z,100.00
2019-01-09T06:06:08.713Z,100.00
2019-01-09T06:08:38.511Z,100.00
2019-01-09T06:11:08.319Z,100.00
2019-01-09T06:13:38.157Z,100.00
2019-01-09T06:16:08.601Z,100.00
2019-01-09T06:18:38.405Z,100.00
2019-01-09T06:21:08.483Z,100.00
2019-01-09T06:23:38.309Z,100.00
2019-01-09T06:26:08.101Z,100.00
2019-01-09T06:28:37.857Z,100.00
2019-01-09T06:31:07.663Z,100.00
2019-01-09T06:33:37.450Z,100.00
2019-01-09T06:36:07.236Z,100.00
2019-01-09T06:38:37.082Z,100.00
2019-01-09T06:41:06.819Z,100.00
2019-01-09T06:43:36.687Z,100.00
2019-01-09T06:46:06.552Z,100.00
2019-01-09T06:48:36.460Z,100.00
2019-01-09T06:51:06.304Z,100.00
2019-01-09T06:53:36.236Z,100.00
2019-01-09T06:56:05.995Z,100.00
2019-01-09T06:58:35.795Z,100.00
2019-01-09T07:01:05.539Z,100.00
2019-01-09T07:03:35.352Z,100.00
2019-01-09T07:06:05.153Z,100.00
2019-01-09T07:08:34.950Z,100.00
2019-01-09T07:11:04.752Z,100.00
2019-01-09T07:13:34.566Z,100.00
2019-01-09T07:16:04.344Z,100.00
2019-01-09T07:18:34.249Z,100.00
2019-01-09T07:21:04.023Z,100.00
2019-01-09T07:23:33.842Z,100.00
2019-01-09T07:26:05.181Z,100.00
2019-01-09T07:28:34.974Z,100.00
2019-01-09T07:31:04.822Z,100.00
2019-01-09T07:33:34.965Z,100.00
2019-01-09T07:36:04.878Z,100.00
2019-01-09T07:38:34.907Z,100.00
2019-01-09T07:41:04.690Z,100.00
2019-01-09T07:43:34.498Z,100.00
2019-01-09T07:46:04.560Z,100.00
2019-01-09T07:48:34.324Z,100.00
2019-01-09T07:51:04.130Z,100.00
2019-01-09T07:53:33.955Z,100.00
2019-01-09T07:56:03.761Z,100.00
2019-01-09T07:58:33.531Z,100.00
2019-01-09T08:01:03.348Z,100.00
2019-01-09T08:03:33.133Z,100.00
2019-01-09T08:06:02.959Z,100.00
2019-01-09T08:08:32.747Z,100.00
2019-01-09T08:11:02.580Z,100.00
2019-01-09T08:13:32.357Z,100.00
2019-01-09T08:16:02.161Z,100.00
2019-01-09T08:18:31.986Z,100.00
2019-01-09T08:21:05.447Z,100.00
2019-01-09T08:23:36.216Z,100.00
2019-01-09T08:26:06.022Z,100.00
2019-01-09T08:28:35.806Z,100.00
2019-01-09T08:31:05.927Z,100.00
2019-01-09T08:33:35.702Z,100.00
2019-01-09T08:36:05.457Z,100.00
2019-01-09T08:38:35.294Z,100.00
2019-01-09T08:41:05.078Z,100.00
2019-01-09T08:43:34.875Z,100.00
2019-01-09T08:46:04.653Z,100.00
2019-01-09T08:48:34.461Z,100.00
2019-01-09T08:51:04.247Z,100.00
2019-01-09T08:53:34.027Z,100.00
2019-01-09T08:56:06.628Z,100.00
2019-01-09T08:58:36.414Z,100.00
2019-01-09T09:01:06.211Z,100.00
2019-01-09T09:03:35.985Z,100.00
2019-01-09T09:06:05.872Z,100.00
2019-01-09T09:08:35.978Z,100.00
2019-01-09T09:11:05.768Z,100.00
2019-01-09T09:13:38.276Z,100.00
2019-01-09T09:16:09.219Z,100.00
2019-01-09T09:18:39.006Z,100.00
2019-01-09T09:21:09.014Z,100.00
2019-01-09T09:23:38.837Z,100.00
2019-01-09T09:26:08.653Z,100.00
2019-01-09T09:28:38.443Z,100.00
2019-01-09T09:31:08.253Z,100.00
2019-01-09T09:33:38.052Z,100.00
2019-01-09T09:36:07.887Z,100.00
2019-01-09T09:38:37.798Z,100.00
2019-01-09T09:41:07.582Z,100.00
2019-01-09T09:43:37.414Z,100.00
2019-01-09T09:46:07.229Z,100.00
2019-01-09T09:48:36.989Z,100.00
2019-01-09T09:51:06.791Z,100.00
2019-01-09T09:53:36.620Z,100.00
2019-01-09T09:56:06.422Z,100.00
2019-01-09T09:58:36.243Z,100.00
2019-01-09T10:01:06.612Z,100.00
2019-01-09T10:03:36.415Z,100.00
2019-01-09T10:06:06.201Z,100.00
2019-01-09T10:08:36.134Z,100.00
2019-01-09T10:11:06.819Z,100.00
2019-01-09T10:13:36.614Z,100.00
2019-01-09T10:16:06.437Z,100.00
2019-01-09T10:18:36.303Z,100.00
2019-01-09T10:21:06.396Z,99.28
2019-01-09T10:23:36.182Z,99.73
2019-01-09T10:26:05.948Z,100.00
2019-01-09T10:28:35.743Z,98.20
2019-01-09T10:31:05.629Z,98.52
2019-01-09T10:33:35.480Z,97.04
2019-01-09T10:36:05.352Z,97.26
2019-01-09T10:38:38.139Z,98.42
2019-01-09T10:41:06.656Z,100.00
2019-01-09T10:43:36.461Z,98.84
2019-01-09T10:46:06.214Z,97.27
2019-01-09T10:48:36.025Z,97.24
2019-01-09T10:51:05.811Z,95.35
2019-01-09T10:53:35.583Z,94.05
2019-01-09T10:56:05.733Z,93.34
2019-01-09T10:58:35.801Z,91.45
2019-01-09T11:01:05.914Z,90.14
2019-01-09T11:03:35.725Z,90.29
2019-01-09T11:06:05.592Z,89.12
2019-01-09T11:08:35.377Z,90.88
2019-01-09T11:11:05.247Z,91.01
2019-01-09T11:13:35.404Z,91.33
2019-01-09T11:16:05.393Z,89.88
2019-01-09T11:18:35.183Z,90.01
2019-01-09T11:21:05.104Z,91.48
2019-01-09T11:23:34.864Z,87.97
2019-01-09T11:26:04.760Z,87.49
2019-01-09T11:28:34.541Z,85.52
2019-01-09T11:31:04.426Z,82.87
2019-01-09T11:33:34.198Z,81.05
2019-01-09T11:36:04.214Z,80.28
2019-01-09T11:38:34.005Z,83.23
2019-01-09T11:41:06.230Z,78.93
2019-01-09T11:43:36.021Z,80.07
2019-01-09T11:46:05.934Z,80.23
2019-01-09T11:48:35.707Z,82.09
2019-01-09T11:51:05.540Z,80.01
2019-01-09T11:53:35.410Z,76.23
2019-01-09T11:56:05.702Z,75.77
2019-01-09T11:58:35.479Z,76.83
2019-01-09T12:01:05.507Z,77.09
2019-01-09T12:03:35.300Z,75.84
2019-01-09T12:06:05.088Z,75.69
2019-01-09T12:08:34.902Z,76.52
2019-01-09T12:11:04.795Z,73.24
2019-01-09T12:13:34.769Z,76.13
2019-01-09T12:16:08.226Z,74.57
2019-01-09T12:18:36.475Z,74.84
2019-01-09T12:21:16.298Z,77.34
2019-01-09T12:23:37.882Z,75.44
2019-01-09T12:26:07.683Z,74.58
2019-01-09T12:28:37.466Z,74.80
2019-01-09T12:31:07.444Z,74.08
2019-01-09T12:33:37.210Z,73.87
2019-01-09T12:36:07.013Z,74.83
2019-01-09T12:38:36.884Z,74.53
2019-01-09T12:41:06.689Z,75.90
2019-01-09T12:43:36.487Z,74.71
2019-01-09T12:46:06.586Z,75.24
2019-01-09T12:48:36.402Z,75.56
2019-01-09T12:51:06.182Z,72.28
2019-01-09T12:53:35.940Z,72.84
2019-01-09T12:56:05.730Z,73.02
2019-01-09T12:58:35.484Z,72.71
2019-01-09T13:01:05.371Z,71.08
2019-01-09T13:03:35.158Z,72.30
2019-01-09T13:06:04.958Z,71.53
2019-01-09T13:08:34.749Z,71.75
2019-01-09T13:11:04.653Z,70.37
2019-01-09T13:13:34.475Z,71.21
2019-01-09T13:16:04.469Z,71.03
2019-01-09T13:18:34.248Z,70.21
2019-01-09T13:21:04.017Z,71.01
2019-01-09T13:23:33.820Z,73.15
2019-01-09T13:26:05.670Z,73.49
2019-01-09T13:28:35.554Z,72.05
2019-01-09T13:31:05.318Z,72.97
2019-01-09T13:33:35.226Z,73.64
2019-01-09T13:36:05.216Z,73.94
2019-01-09T13:38:35.030Z,74.57
2019-01-09T13:41:05.329Z,74.49
2019-01-09T13:43:35.144Z,72.31
2019-01-09T13:46:05.141Z,73.28
2019-01-09T13:48:34.939Z,71.42
2019-01-09T13:51:05.322Z,69.35
2019-01-09T13:53:35.205Z,69.62
2019-01-09T13:56:05.034Z,65.62
2019-01-09T13:58:34.816Z,66.72
2019-01-09T14:01:04.896Z,68.52
2019-01-09T14:03:34.682Z,67.54
2019-01-09T14:06:05.005Z,67.37
2019-01-09T14:08:34.849Z,66.37
2019-01-09T14:11:04.611Z,70.24
2019-01-09T14:13:34.402Z,68.14
2019-01-09T14:16:04.230Z,70.42
2019-01-09T14:18:34.014Z,69.24
2019-01-09T14:21:03.785Z,70.67
2019-01-09T14:23:33.582Z,73.74
2019-01-09T14:26:03.480Z,71.79
2019-01-09T14:28:33.266Z,72.10
2019-01-09T14:31:03.040Z,70.84
2019-01-09T14:33:32.859Z,72.17
2019-01-09T14:36:02.713Z,70.05
2019-01-09T14:38:32.597Z,71.38
2019-01-09T14:41:05.360Z,71.73
2019-01-09T14:43:35.254Z,71.81
2019-01-09T14:46:05.091Z,71.18
2019-01-09T14:48:34.882Z,71.65
2019-01-09T14:51:04.899Z,70.48
2019-01-09T14:53:34.676Z,75.10
2019-01-09T14:56:04.637Z,70.79
2019-01-09T14:58:34.745Z,71.19
2019-01-09T15:01:04.545Z,71.55
2019-01-09T15:03:34.432Z,72.00
2019-01-09T15:06:04.233Z,69.78
2019-01-09T15:08:34.034Z,69.11
2019-01-09T15:11:06.372Z,69.47
2019-01-09T15:13:36.205Z,67.73
2019-01-09T15:16:06.095Z,68.09
2019-01-09T15:18:35.933Z,68.44
2019-01-09T15:21:05.684Z,69.57
2019-01-09T15:23:35.517Z,69.24
2019-01-09T15:26:05.312Z,70.31
2019-01-09T15:28:35.138Z,70.14
2019-01-09T15:31:05.124Z,71.83
2019-01-09T15:33:34.901Z,72.09
2019-01-09T15:36:05.003Z,72.45
2019-01-09T15:38:34.810Z,72.99
2019-01-09T15:41:07.581Z,73.55
2019-01-09T15:43:37.474Z,70.93
2019-01-09T15:46:07.271Z,71.14
2019-01-09T15:48:37.064Z,71.53
2019-01-09T15:51:06.858Z,71.39
2019-01-09T15:53:36.650Z,69.60
2019-01-09T15:56:06.443Z,68.93
2019-01-09T15:58:36.268Z,70.54
2019-01-09T16:01:06.508Z,69.40
2019-01-09T16:03:36.337Z,69.87
2019-01-09T16:06:06.165Z,70.46
2019-01-09T16:08:35.983Z,70.55
2019-01-09T16:11:06.295Z,70.99
2019-01-09T16:13:36.080Z,71.68
2019-01-09T16:16:05.976Z,71.49
2019-01-09T16:18:35.788Z,72.41
2019-01-09T16:21:05.616Z,73.86
2019-01-09T16:23:35.348Z,73.61
2019-01-09T16:26:05.568Z,73.96
2019-01-09T16:28:35.359Z,73.45
2019-01-09T16:31:09.673Z,72.96
2019-01-09T16:33:40.421Z,72.24
2019-01-09T16:36:10.243Z,72.10
2019-01-09T16:38:40.028Z,72.62
2019-01-09T16:41:09.838Z,72.10
2019-01-09T16:43:39.646Z,72.18
2019-01-09T16:46:09.626Z,72.19
2019-01-09T16:48:39.718Z,72.28
2019-01-09T16:51:09.735Z,71.34
2019-01-09T16:53:39.710Z,71.28
2019-01-09T16:56:09.603Z,71.94
2019-01-09T16:58:39.475Z,72.51
2019-01-09T17:01:09.457Z,74.42
2019-01-09T17:03:39.470Z,75.42
2019-01-09T17:06:09.293Z,75.52
2019-01-09T17:08:39.098Z,74.18
2019-01-09T17:11:08.972Z,73.81
2019-01-09T17:13:38.766Z,74.32
2019-01-09T17:16:08.615Z,74.71
2019-01-09T17:18:38.419Z,75.36
2019-01-09T17:21:08.325Z,75.25
2019-01-09T17:23:38.505Z,74.41
2019-01-09T17:26:08.351Z,74.08
2019-01-09T17:28:38.191Z,74.99
2019-01-09T17:31:07.953Z,75.78
2019-01-09T17:33:37.987Z,74.45
2019-01-09T17:36:08.284Z,74.98
2019-01-09T17:38:38.071Z,75.68
2019-01-09T17:41:07.902Z,74.87
2019-01-09T17:43:37.691Z,76.21
2019-01-09T17:46:07.481Z,77.12
2019-01-09T17:48:37.324Z,77.06
2019-01-09T17:51:07.118Z,75.77
2019-01-09T17:53:36.947Z,77.05
2019-01-09T17:56:06.816Z,75.98
2019-01-09T17:58:36.634Z,77.07
2019-01-09T18:01:06.588Z,76.82
2019-01-09T18:03:36.390Z,77.16
2019-01-09T18:06:06.274Z,77.21
2019-01-09T18:08:36.087Z,77.88
2019-01-09T18:11:06.279Z,79.03
2019-01-09T18:13:36.078Z,78.24
2019-01-09T18:16:06.287Z,79.07
2019-01-09T18:18:36.100Z,79.36
2019-01-09T18:21:06.036Z,80.37
2019-01-09T18:23:35.887Z,80.17
2019-01-09T18:26:05.897Z,81.20
2019-01-09T18:28:35.935Z,80.40
2019-01-09T18:31:19.763Z,80.98
2019-01-09T18:33:54.501Z,82.13
2019-01-09T18:36:49.490Z,82.45
2019-01-09T18:39:41.716Z,81.19
2019-01-09T18:42:38.996Z,81.55
2019-01-09T18:45:27.977Z,81.17
2019-01-09T18:48:31.661Z,82.59
2019-01-09T18:51:08.942Z,82.86
2019-01-09T18:53:38.759Z,83.01
2019-01-09T18:56:08.562Z,82.23
2019-01-09T18:58:38.377Z,83.06
2019-01-09T19:01:08.376Z,84.09
2019-01-09T19:03:38.176Z,82.72
2019-01-09T19:06:07.953Z,84.54
2019-01-09T19:08:37.744Z,82.65
2019-01-09T19:11:08.113Z,81.68
2019-01-09T19:13:38.372Z,81.16
2019-01-09T19:16:08.635Z,82.23
2019-01-09T19:18:38.632Z,82.37
2019-01-09T19:21:08.433Z,81.59
2019-01-09T19:23:38.296Z,81.74
2019-01-09T19:26:08.186Z,81.15
2019-01-09T19:28:38.231Z,82.26
2019-01-09T19:31:08.139Z,83.30
2019-01-09T19:33:38.271Z,81.96
2019-01-09T19:36:08.063Z,81.96
2019-01-09T19:38:38.252Z,80.84
2019-01-09T19:41:16.736Z,79.85
2019-01-09T19:43:40.335Z,79.29
2019-01-09T19:46:10.149Z,79.02
2019-01-09T19:48:40.226Z,78.81
2019-01-09T19:51:17.316Z,79.40
2019-01-09T19:53:42.344Z,79.04
2019-01-09T19:56:12.165Z,78.01
2019-01-09T19:58:41.989Z,79.00
2019-01-09T20:01:12.660Z,79.40
2019-01-09T20:03:42.453Z,79.37
2019-01-09T20:06:12.374Z,78.86
2019-01-09T20:08:42.196Z,78.16
2019-01-09T20:11:11.930Z,80.16
2019-01-09T20:13:41.771Z,78.62
2019-01-09T20:16:11.558Z,80.00
2019-01-09T20:18:41.361Z,80.64
2019-01-09T20:21:11.182Z,81.55
2019-01-09T20:23:40.988Z,82.14
2019-01-09T20:26:10.894Z,82.46
2019-01-09T20:28:59.988Z,80.79
2019-01-09T20:31:29.790Z,81.42
2019-01-09T20:33:59.641Z,81.43
2019-01-09T20:36:29.456Z,81.63
2019-01-09T20:38:59.254Z,81.25
2019-01-09T20:41:35.100Z,82.82
2019-01-09T20:44:00.592Z,83.90
2019-01-09T20:46:30.497Z,85.42
2019-01-09T20:49:00.325Z,85.81
2019-01-09T20:51:30.125Z,85.35
2019-01-09T20:54:00.103Z,84.47
2019-01-09T20:56:30.007Z,84.59
2019-01-09T20:59:00.042Z,84.79
2019-01-09T21:01:29.980Z,84.25
2019-01-09T21:03:59.832Z,84.57
2019-01-09T21:06:29.634Z,83.42
2019-01-09T21:09:00.161Z,84.44
2019-01-09T21:11:30.135Z,84.28
2019-01-09T21:13:59.983Z,83.97
2019-01-09T21:16:29.789Z,84.13
2019-01-09T21:18:59.574Z,82.46
2019-01-09T21:21:29.453Z,81.98
2019-01-09T21:23:59.288Z,81.87
2019-01-09T21:26:29.102Z,82.86
2019-01-09T21:28:58.935Z,81.78
2019-01-09T21:31:28.756Z,81.08
2019-01-09T21:33:58.552Z,80.40
2019-01-09T21:36:28.344Z,80.66
2019-01-09T21:38:58.478Z,81.83
2019-01-09T21:41:28.309Z,81.58
2019-01-09T21:43:58.101Z,82.40
2019-01-09T21:46:28.101Z,80.10
2019-01-09T21:48:58.252Z,81.31
2019-01-09T21:51:28.128Z,79.74
2019-01-09T21:53:57.936Z,76.88
2019-01-09T21:56:27.710Z,77.92
2019-01-09T21:58:57.757Z,79.22
2019-01-09T22:01:27.543Z,78.24
2019-01-09T22:03:57.343Z,78.58
2019-01-09T22:06:27.100Z,78.48
2019-01-09T22:08:56.921Z,78.07
2019-01-09T22:11:26.701Z,79.52
2019-01-09T22:13:56.522Z,78.14
2019-01-09T22:16:26.322Z,78.54
2019-01-09T22:18:56.106Z,78.42
2019-01-09T22:21:25.923Z,78.83
2019-01-09T22:23:55.846Z,78.44
2019-01-09T22:26:25.625Z,78.63
2019-01-09T22:28:55.461Z,78.41
2019-01-09T22:31:25.250Z,78.38
2019-01-09T22:33:55.262Z,77.97
2019-01-09T22:36:25.195Z,78.93
2019-01-09T22:38:54.987Z,78.78
2019-01-09T22:41:24.792Z,79.51
2019-01-09T22:43:54.641Z,78.17
2019-01-09T22:46:24.439Z,78.88
2019-01-09T22:48:54.452Z,78.50
2019-01-09T22:51:24.239Z,79.62
2019-01-09T22:53:54.042Z,79.05
2019-01-09T22:56:23.823Z,77.31
2019-01-09T22:58:53.655Z,79.81
2019-01-09T23:01:23.433Z,79.46
2019-01-09T23:03:53.243Z,80.01
2019-01-09T23:06:23.008Z,80.10
2019-01-09T23:08:52.938Z,79.70
2019-01-09T23:11:22.819Z,78.18
2019-01-09T23:13:52.744Z,78.35
2019-01-09T23:16:22.519Z,78.93
2019-01-09T23:18:52.625Z,77.78
2019-01-09T23:21:22.454Z,78.66
2019-01-09T23:23:52.212Z,77.89
2019-01-09T23:26:22.114Z,79.35
2019-01-09T23:28:51.949Z,79.28
2019-01-09T23:31:21.750Z,79.01
2019-01-09T23:33:51.543Z,79.56
2019-01-09T23:36:21.381Z,79.22
2019-01-09T23:38:51.406Z,78.76
2019-01-09T23:41:21.196Z,80.66
2019-01-09T23:43:50.994Z,81.64
2019-01-09T23:46:20.771Z,82.15
2019-01-09T23:48:50.564Z,82.92
2019-01-09T23:51:20.338Z,82.22
2019-01-09T23:53:50.150Z,84.18
2019-01-09T23:56:19.933Z,85.44
2019-01-09T23:58:50.106Z,84.40
